Home > Products > Valid Products > MTR

000
SAUS41 KLWX 310310 COR
MTRRSP
METAR KRSP 310254Z AUTO 32007KT 10SM BKN046 OVC110 18/12 A3010 RMK
AO2 SLP191 T01830122 51006 $





000
SAUS41 KLWX 310300
MTRRYT
METAR KRYT 310253Z AUTO 00000KT 10SM SCT055 OVC110 16/14 A3007 RMK
AO2 SLP175 T01610139 51009 $





000
SAUS41 KLWX 310259 COR
MTRDMH
METAR KDMH 310254Z AUTO 22/13 A3006 RMK AO1 SLP179 T02220128 50005





000
SAUS41 KLWX 310255
MTRNAK
METAR KNAK 310254Z AUTO 00000KT 10SM CLR 21/13 A3005 RMK AO2 SLP179
T02110128 50003





000
SAUS41 KLWX 310210 COR
MTRRSP
METAR KRSP 310154Z AUTO 22006KT 10SM BKN110 18/12 A3010 RMK AO2
SLP191 T01830117 $





000
SAUS41 KLWX 310200
MTRRYT
METAR KRYT 310153Z AUTO 00000KT 10SM SCT110 17/14 A3006 RMK AO2
SLP173 T01670139 $





000
SAUS41 KLWX 310159 COR
MTRDMH
METAR KDMH 310154Z AUTO 23/13 A3006 RMK AO1 SLP179 T02330128





000
SAUS41 KLWX 310155
MTRNAK
METAR KNAK 310154Z AUTO 00000KT 7SM CLR 21/13 A3006 RMK AO2 SLP182
T02060133





000
SAUS41 KLWX 310110 COR
MTRRSP
METAR KRSP 310054Z AUTO 21006KT 10SM CLR 18/11 A3009 RMK AO2 SLP189
T01830111 $





000
SAUS41 KLWX 310100
MTRRYT
METAR KRYT 310053Z AUTO 00000KT 10SM CLR 18/14 A3005 RMK AO2 SLP171
T01780144 $





000
SAUS41 KLWX 310059 COR
MTRDMH
METAR KDMH 310054Z AUTO 24/13 A3005 RMK AO1 SLP176 T02390128





000
SAUS41 KLWX 310055
MTRNAK
METAR KNAK 310054Z AUTO 19003KT 10SM CLR 22/13 A3005 RMK AO2 SLP179
T02220128





000
SAUS41 KLWX 310010 COR
MTRRSP
METAR KRSP 302354Z AUTO VRB04KT 10SM CLR 19/12 A3009 RMK AO2 SLP187
T01890117 10222 20189 53004 $





000
SAUS41 KLWX 310000
MTRRYT
METAR KRYT 302353Z AUTO 00000KT 10SM CLR 19/15 A3004 RMK AO2 SLP167
T01890150 10233 20189 53004 $





000
SAUS41 KLWX 302359 COR
MTRDMH
METAR KDMH 302354Z AUTO 24/13 A3004 RMK AO1 SLP173 T02440128 10272
20244 53004





000
SAUS41 KLWX 302356
MTRNAK
METAR KNAK 302354Z AUTO 16004KT 10SM CLR 23/13 A3004 RMK AO2 SLP175
T02280128 10250 20222 53004





000
SAUS41 KLWX 302310 COR
MTRRSP
METAR KRSP 302254Z AUTO VRB04KT 10SM CLR 20/12 A3008 RMK AO2 SLP186
T02000117 $





000
SAUS41 KLWX 302300
MTRRYT
METAR KRYT 302253Z AUTO 00000KT 10SM CLR 22/13 A3003 RMK AO2 SLP164
T02220128 $





000
SAUS41 KLWX 302259 COR
MTRDMH
METAR KDMH 302254Z AUTO 26/11 A3003 RMK AO1 SLP168 T02560106





000
SAUS41 KLWX 302256
MTRNAK
METAR KNAK 302254Z AUTO 16011KT 10SM CLR 24/12 A3003 RMK AO2 SLP171
T02390122





000
SAUS41 KLWX 302210 COR
MTRRSP
METAR KRSP 302154Z AUTO 22005KT 10SM CLR 22/11 A3007 RMK AO2 SLP183
T02170111 $





000
SAUS41 KLWX 302200
MTRRYT
METAR KRYT 302153Z AUTO VRB03KT 10SM CLR 23/12 A3002 RMK AO2 SLP162
T02330122 $





000
SAUS41 KLWX 302159 COR
MTRDMH
METAR KDMH 302154Z AUTO 26/11 A3002 RMK AO1 SLP166 T02610111





000
SAUS41 KLWX 302155
MTRNAK
METAR KNAK 302154Z AUTO 16007KT 10SM CLR 24/13 A3003 RMK AO2 SLP170
T02440128





000
SAUS41 KLWX 302110 COR
MTRRSP
METAR KRSP 302054Z AUTO 18005KT 10SM FEW037 22/11 A3007 RMK AO2
SLP183 T02170111 58008 $





000
SAUS41 KLWX 302100
MTRRYT
METAR KRYT 302053Z AUTO VRB03KT 10SM BKN050 23/12 A3003 RMK AO2
SLP162 T02330117 56013 $





000
SAUS41 KLWX 302059 COR
MTRDMH
METAR KDMH 302054Z AUTO 27/10 A3003 RMK AO1 SLP169 T02670100 56008





000
SAUS41 KLWX 302055
MTRNAK
METAR KNAK 302054Z AUTO 17009KT 10SM SCT060 24/12 A3003 RMK AO2
SLP171 T02440122 57009





000
SAUS41 KLWX 302010 COR
MTRRSP
METAR KRSP 301954Z AUTO 25004KT 10SM CLR 21/11 A3008 RMK AO2 SLP187
T02060111 $





000
SAUS41 KLWX 302000
MTRRYT
METAR KRYT 301953Z AUTO 00000KT 10SM CLR 23/11 A3004 RMK AO2 SLP165
T02280111 $





000
SAUS41 KLWX 301959 COR
MTRDMH
METAR KDMH 301954Z AUTO 27/09 A3003 RMK AO1 SLP170 T02670089





000
SAUS41 KLWX 301955
MTRNAK
METAR KNAK 301954Z AUTO 12010KT 10SM SCT060 24/14 A3004 RMK AO2
SLP175 T02390144





000
SAUS41 KLWX 301910 COR
MTRRSP
METAR KRSP 301854Z AUTO 30004KT 10SM CLR 21/10 A3009 RMK AO2 SLP188
T02060100 $





000
SAUS41 KLWX 301900
MTRRYT
METAR KRYT 301853Z AUTO VRB03KT 10SM CLR 23/10 A3005 RMK AO2 SLP170
T02280100 $





000
SAUS41 KLWX 301859 COR
MTRDMH
METAR KDMH 301854Z AUTO 26/09 A3004 RMK AO1 SLP173 T02610089





000
SAUS41 KLWX 301855
MTRNAK
METAR KNAK 301854Z AUTO 13007KT 10SM BKN065 24/13 A3005 RMK AO2
SLP178 T02390133





000
SAUS41 KLWX 301810 COR
MTRRSP
METAR KRSP 301754Z AUTO VRB04KT 10SM FEW038 21/11 A3010 RMK AO2
SLP191 T02110106 10211 20139 58004 $





000
SAUS41 KLWX 301800
MTRRYT
METAR KRYT 301753Z AUTO VRB03KT 10SM CLR 22/11 A3007 RMK AO2 SLP176
T02170106 10222 20144 58005 $





000
SAUS41 KLWX 301759 COR
MTRDMH
METAR KDMH 301754Z AUTO 24/09 A3006 RMK AO1 SLP177 T02440089 10261
20189 58008





000
SAUS41 KLWX 301756
MTRNAK
METAR KNAK 301754Z AUTO 13009KT 10SM BKN060 23/14 A3006 RMK AO2
SLP181 T02280139 10239 20172 58007





000
SAUS41 KLWX 301710 COR
MTRRSP
METAR KRSP 301654Z AUTO 28008KT 10SM CLR 20/10 A3011 RMK AO2 SLP196
T02000100 $





000
SAUS41 KLWX 301700
MTRRYT
METAR KRYT 301653Z AUTO 25004KT 10SM CLR 22/12 A3007 RMK AO2 SLP178
T02170117 $





000
SAUS41 KLWX 301659 COR
MTRDMH
METAR KDMH 301654Z AUTO 26/09 A3007 RMK AO1 SLP181 T02610094





000
SAUS41 KLWX 301655
MTRNAK
METAR KNAK 301654Z AUTO 12008KT 10SM BKN055 23/14 A3007 RMK AO2
SLP184 T02280139





000
SAUS41 KLWX 301610 COR
MTRRSP
METAR KRSP 301554Z AUTO 27003KT 10SM CLR 19/09 A3011 RMK AO2 SLP198
T01890094 $





000
SAUS41 KLWX 301600
MTRRYT
METAR KRYT 301553Z AUTO VRB04KT 10SM CLR 21/11 A3008 RMK AO2 SLP181
T02060106 $





000
SAUS41 KLWX 301559 COR
MTRDMH
METAR KDMH 301554Z AUTO 24/10 A3007 RMK AO1 SLP184 T02440100





000
SAUS41 KLWX 301555
MTRNAK
METAR KNAK 301554Z AUTO 36005KT 10SM CLR 23/12 A3008 RMK AO2 SLP187
T02330122





000
SAUS41 KLWX 301510 COR
MTRRSP
METAR KRSP 301454Z AUTO 00000KT 10SM CLR 19/09 A3011 RMK AO2 SLP197
T01890094 51005 $





000
SAUS41 KLWX 301500
MTRRYT
METAR KRYT 301453Z AUTO VRB03KT 10SM CLR 20/11 A3008 RMK AO2 SLP182
T02000106 51004 $





000
SAUS41 KLWX 301459 COR
MTRDMH
METAR KDMH 301454Z AUTO 23/10 A3008 RMK AO1 SLP185 T02280100 51004





000
SAUS41 KLWX 301455
MTRNAK
METAR KNAK 301454Z AUTO 00000KT 10SM CLR 23/11 A3008 RMK AO2 SLP188
T02280111 51005





000
SAUS41 KLWX 301409 COR
MTRRSP
METAR KRSP 301354Z AUTO 32006KT 10SM CLR 17/11 A3011 RMK AO2 SLP196
T01720111 $





000
SAUS41 KLWX 301400
MTRRYT
METAR KRYT 301353Z AUTO 34004KT 10SM CLR 19/12 A3008 RMK AO2 SLP181
T01890117 $





000
SAUS41 KLWX 301359 COR
MTRDMH
METAR KDMH 301354Z AUTO 23/12 A3008 RMK AO1 SLP184 T02280117





000
SAUS41 KLWX 301355
MTRNAK
METAR KNAK 301354Z AUTO 31006KT 10SM CLR 21/13 A3008 RMK AO2 SLP187
T02110128





000
SAUS41 KLWX 301310 COR
MTRRSP
METAR KRSP 301254Z AUTO 32004KT 10SM CLR 16/10 A3010 RMK AO2 SLP197
T01560100 $





000
SAUS41 KLWX 301300
MTRRYT
METAR KRYT 301253Z AUTO 28004KT 10SM CLR 17/11 A3008 RMK AO2 SLP182
T01670111 $





000
SAUS41 KLWX 301259 COR
MTRDMH
METAR KDMH 301254Z AUTO 21/11 A3008 RMK AO1 SLP185 T02110111





000
SAUS41 KLWX 301255
MTRNAK
METAR KNAK 301254Z AUTO 32005KT 10SM CLR 19/13 A3008 RMK AO2 SLP186
T01940128





000
SAUS41 KLWX 301210 COR
MTRRSP
METAR KRSP 301154Z AUTO 32005KT 10SM CLR 14/10 A3010 RMK AO2 SLP193
T01390100 10139 20111 51016 $





000
SAUS41 KLWX 301200
MTRRYT
METAR KRYT 301153Z AUTO 00000KT 10SM CLR 14/11 A3007 RMK AO2 SLP178
T01440106 10144 20106 51014 $





000
SAUS41 KLWX 301159 COR
MTRDMH
METAR KDMH 301154Z AUTO 19/11 A3007 RMK AO1 SLP181 T01890106 10189
20161 51016





000
SAUS41 KLWX 301155
MTRNAK
METAR KNAK 301154Z AUTO 28005KT 9SM CLR 17/12 A3007 RMK AO2 SLP183
T01720117 10183 20150 51017





000
SAUS41 KLWX 301109 COR
MTRRSP
METAR KRSP 301054Z AUTO VRB03KT 10SM CLR 12/09 A3008 RMK AO2 SLP190
T01220089 $





000
SAUS41 KLWX 301100
MTRRYT
METAR KRYT 301053Z AUTO 00000KT 10SM CLR 12/10 A3006 RMK AO2 SLP176
T01170100 $





000
SAUS41 KLWX 301059 COR
MTRDMH
METAR KDMH 301054Z AUTO 17/11 A3006 RMK AO1 SLP179 T01720106





000
SAUS41 KLWX 301055
MTRNAK
METAR KNAK 301054Z AUTO 28004KT 9SM CLR 16/11 A3006 RMK AO2 SLP179
T01560106





000
SAUS41 KLWX 301010 COR
MTRRSP
METAR KRSP 300954Z AUTO 33004KT 10SM CLR 12/09 A3007 RMK AO2 SLP184
T01170089 $





000
SAUS41 KLWX 301000
MTRRYT
METAR KRYT 300953Z AUTO 00000KT 10SM CLR 11/09 A3005 RMK AO2 SLP171
T01060094 $





000
SAUS41 KLWX 300959 COR
MTRDMH
METAR KDMH 300954Z AUTO 17/11 A3004 RMK AO1 SLP173 T01670106





000
SAUS41 KLWX 300955
MTRNAK
METAR KNAK 300954Z AUTO 27005KT 10SM CLR 16/11 A3003 RMK AO2 SLP172
T01560106





000
SAUS41 KLWX 300910 COR
MTRRSP
METAR KRSP 300854Z AUTO VRB05KT 10SM CLR 12/09 A3005 RMK AO2 SLP176
T01170094 56001 $





000
SAUS41 KLWX 300900
MTRRYT
METAR KRYT 300853Z AUTO 00000KT 10SM CLR 12/09 A3002 RMK AO2 SLP163
T01220094 53001 $





000
SAUS41 KLWX 300859 COR
MTRDMH
METAR KDMH 300854Z AUTO 17/11 A3002 RMK AO1 SLP165 T01720106 53001





000
SAUS41 KLWX 300855
MTRNAK
METAR KNAK 300854Z AUTO 28005KT 10SM CLR 15/11 A3002 RMK AO2 SLP166
T01500106 53002





000
SAUS41 KLWX 300810 COR
MTRRSP
METAR KRSP 300754Z AUTO 32005KT 10SM CLR 12/09 A3005 RMK AO2 SLP177
T01170089 $





000
SAUS41 KLWX 300800
MTRRYT
METAR KRYT 300753Z AUTO 00000KT 10SM CLR 14/09 A3002 RMK AO2 SLP161
T01390094 $





000
SAUS41 KLWX 300759 COR
MTRDMH
METAR KDMH 300754Z AUTO 18/11 A3001 RMK AO1 SLP163 T01780106





000
SAUS41 KLWX 300755
MTRNAK
METAR KNAK 300754Z AUTO 27005KT 10SM CLR 16/11 A3000 RMK AO2 SLP162
T01610106





000
SAUS41 KLWX 300709 COR
MTRRSP
METAR KRSP 300654Z AUTO 33004KT 10SM CLR 12/09 A3005 RMK AO2 SLP176
T01220089 $





000
SAUS41 KLWX 300700
MTRRYT
METAR KRYT 300653Z AUTO 23004KT 10SM CLR 12/10 A3002 RMK AO2 SLP160
T01170100 $





000
SAUS41 KLWX 300659 COR
MTRDMH
METAR KDMH 300654Z AUTO 18/11 A3001 RMK AO1 SLP163 T01830106





000
SAUS41 KLWX 300655
MTRNAK
METAR KNAK 300654Z AUTO 28004KT 10SM CLR 17/11 A3000 RMK AO2 SLP161
T01720111





000
SAUS41 KLWX 300610 COR
MTRRSP
METAR KRSP 300554Z AUTO 34004KT 10SM CLR 12/09 A3005 RMK AO2 SLP177
T01220089 10144 20122 50001 $





000
SAUS41 KLWX 300600
MTRRYT
METAR KRYT 300553Z AUTO 00000KT 10SM CLR 12/10 A3002 RMK AO2 SLP162
T01170100 10167 20111 50001 $





000
SAUS41 KLWX 300559 COR
MTRDMH
METAR KDMH 300554Z AUTO 19/11 A3002 RMK AO1 SLP164 T01890106 10222
20189 50003





000
SAUS41 KLWX 300555
MTRNAK
METAR KNAK 300554Z AUTO 29005KT 10SM FEW070 18/11 A3001 RMK AO2
SLP163 T01830111 10217 20172 56001





000
SAUS41 KLWX 300509 COR
MTRRSP
METAR KRSP 300454Z AUTO 33005KT 10SM CLR 12/09 A3005 RMK AO2 SLP178
T01220089 401890111 $





000
SAUS41 KLWX 300500
MTRRYT
METAR KRYT 300453Z AUTO 00000KT 10SM CLR 12/10 A3003 RMK AO2 SLP166
T01170100 402060117 $





000
SAUS41 KLWX 300459 COR
MTRDMH
METAR KDMH 300454Z AUTO 19/11 A3002 RMK AO1 SLP166 T01940111
402500183





000
SAUS41 KLWX 300455
MTRNAK
METAR KNAK 300454Z AUTO 28005KT 10SM BKN065 18/11 A3001 RMK AO2
SLP164 T01780111 402390172





000
SAUS41 KLWX 300410 COR
MTRRSP
METAR KRSP 300354Z AUTO 32005KT 10SM CLR 13/09 A3005 RMK AO2 SLP179
T01280089 $





000
SAUS41 KLWX 300400
MTRRYT
METAR KRYT 300353Z AUTO 00000KT 10SM CLR 12/10 A3002 RMK AO2 SLP164
T01170100 $





000
SAUS41 KLWX 300359 COR
MTRDMH
METAR KDMH 300354Z AUTO 20/11 A3002 RMK AO1 SLP165 T02000111





000
SAUS41 KLWX 300355
MTRNAK
METAR KNAK 300354Z AUTO 30003KT 10SM CLR 18/12 A3001 RMK AO2 SLP163
T01780117





000
SAUS41 KLWX 300310 COR
MTRRSP
METAR KRSP 300254Z AUTO VRB05KT 10SM CLR 13/09 A3005 RMK AO2 SLP177
T01280089 52005 $





000
SAUS41 KLWX 300300
MTRRYT
METAR KRYT 300253Z AUTO 00000KT 10SM CLR 12/11 A3002 RMK AO2 SLP163
T01220106 51008 $





000
SAUS41 KLWX 300259 COR
MTRDMH
METAR KDMH 300254Z AUTO 21/11 A3001 RMK AO1 SLP162 T02060111 53008





000
SAUS41 KLWX 300255
MTRNAK
METAR KNAK 300254Z AUTO 27005KT 10SM CLR 19/11 A3001 RMK AO2 SLP165
T01890111 53013





000
SAUS41 KLWX 300210 COR
MTRRSP
METAR KRSP 300154Z AUTO 34006KT 10SM CLR 12/09 A3005 RMK AO2 SLP178
T01220089 $





000
SAUS41 KLWX 300200
MTRRYT
METAR KRYT 300153Z AUTO 00000KT 10SM CLR 13/11 A3002 RMK AO2 SLP162
T01330111 $





000
SAUS41 KLWX 300159 COR
MTRDMH
METAR KDMH 300154Z AUTO 21/11 A3000 RMK AO1 SLP159 T02110111





000
SAUS41 KLWX 300156
MTRNAK
METAR KNAK 300154Z AUTO 35005KT 10SM CLR 21/13 A3000 RMK AO2 SLP159
T02110128





000
SAUS41 KLWX 300110 COR
MTRRSP
METAR KRSP 300054Z AUTO 34005KT 10SM CLR 13/09 A3003 RMK AO2 SLP173
T01330094 $





000
SAUS41 KLWX 300100
MTRRYT
METAR KRYT 300053Z AUTO 00000KT 10SM FEW070 14/12 A3000 RMK AO2
SLP158 T01440117 $





000
SAUS41 KLWX 300059 COR
MTRDMH
METAR KDMH 300054Z AUTO 22/11 A2999 RMK AO1 SLP154 T02170111





000
SAUS41 KLWX 300055
MTRNAK
METAR KNAK 300054Z AUTO 30005KT 10SM CLR 21/12 A2998 RMK AO2 SLP153
T02060117





000
SAUS41 KLWX 300009 COR
MTRRSP
METAR KRSP 292354Z AUTO 33005KT 10SM FEW060 14/09 A3003 RMK AO2
SLP173 T01440094 10189 20144 51012 $





000
SAUS41 KLWX 300000
MTRRYT
METAR KRYT 292353Z AUTO 00000KT 10SM CLR 17/13 A3000 RMK AO2 SLP153
T01720128 10206 20167 51012 $





000
SAUS41 KLWX 292359 COR
MTRDMH
METAR KDMH 292354Z AUTO 22/11 A2999 RMK AO1 SLP153 T02220111 10250
20222 53016





000
SAUS41 KLWX 292356
MTRNAK
METAR KNAK 292354Z AUTO 28006KT 10SM CLR 22/12 A2997 RMK AO2 SLP151
T02170122 10239 20217 51013





000
SAUS41 KLWX 292310 COR
MTRRSP
METAR KRSP 292254Z AUTO VRB04KT 10SM BKN060 16/09 A3002 RMK AO2
SLP168 T01610094 $





000
SAUS41 KLWX 292300
MTRRYT
METAR KRYT 292253Z AUTO 00000KT 10SM CLR 18/11 A2999 RMK AO2 SLP150
T01830111 $





000
SAUS41 KLWX 292259 COR
MTRDMH
METAR KDMH 292254Z AUTO 23/11 A2997 RMK AO1 SLP148 T02280111





000
SAUS41 KLWX 292255
MTRNAK
METAR KNAK 292254Z AUTO 28004KT 10SM CLR 23/12 A2996 RMK AO2 SLP147
T02280117





000
SAUS41 KLWX 292210 COR
MTRRSP
METAR KRSP 292154Z AUTO VRB06G14KT 10SM CLR 17/10 A3001 RMK AO2
SLP163 T01670100 $





000
SAUS41 KLWX 292200
MTRRYT
METAR KRYT 292153Z AUTO VRB03KT 10SM SCT075 19/09 A2997 RMK AO2
SLP144 T01890094 $





000
SAUS41 KLWX 292159 COR
MTRDMH
METAR KDMH 292154Z AUTO 23/11 A2995 RMK AO1 SLP142 T02330106





000
SAUS41 KLWX 292155
MTRNAK
METAR KNAK 292154Z AUTO 28005KT 10SM CLR 23/10 A2995 RMK AO2 SLP144
T02330100





000
SAUS41 KLWX 292110 COR
MTRRSP
METAR KRSP 292054Z AUTO 33008KT 300V360 10SM BKN065 17/11 A2999 RMK
AO2 SLP157 T01720106 53007 $





000
SAUS41 KLWX 292100
MTRRYT
METAR KRYT 292053Z AUTO 00000KT 10SM OVC075 20/11 A2996 RMK AO2
SLP139 T02000106 53007 $





000
SAUS41 KLWX 292059 COR
MTRDMH
METAR KDMH 292054Z AUTO 23/11 A2994 RMK AO1 SLP138 T02330106 53007





000
SAUS41 KLWX 292055
MTRNAK
METAR KNAK 292054Z AUTO 30009KT 10SM CLR 23/11 A2994 RMK AO2 SLP138
T02330106 51004





000
SAUS41 KLWX 292010 COR
MTRRSP
METAR KRSP 291954Z AUTO VRB06KT 10SM SCT031 OVC060 17/10 A2998 RMK
AO2 SLP154 T01720100 $





000
SAUS41 KLWX 292000
MTRRYT
METAR KRYT 291953Z AUTO 27005KT 10SM OVC070 19/11 A2995 RMK AO2
SLP135 T01940106 $





000
SAUS41 KLWX 291959 COR
MTRDMH
METAR KDMH 291954Z AUTO 23/11 A2993 RMK AO1 SLP135 T02330106





000
SAUS41 KLWX 291956
MTRNAK
METAR KNAK 291954Z AUTO 29007KT 10SM CLR 23/11 A2993 RMK AO2 SLP137
T02280106





000
SAUS41 KLWX 291910 COR
MTRRSP
METAR KRSP 291854Z AUTO VRB04KT 10SM FEW024 BKN055 18/12 A2997 RMK
AO2 SLP150 T01780117 $





000
SAUS41 KLWX 291900
MTRRYT
METAR KRYT 291853Z AUTO VRB03KT 10SM SCT065 20/11 A2994 RMK AO2
SLP132 T02000111 $





000
SAUS41 KLWX 291859 COR
MTRDMH
METAR KDMH 291854Z AUTO 24/11 A2992 RMK AO1 SLP132 T02440111





000
SAUS41 KLWX 291856
MTRNAK
METAR KNAK 291854Z AUTO 29009KT 10SM BKN050 23/11 A2993 RMK AO2
SLP138 T02280111





000
SAUS41 KLWX 291809 COR
MTRRSP
METAR KRSP 291754Z AUTO VRB06KT 10SM FEW055 18/12 A2997 RMK AO2
SLP147 T01830117 10189 20117 53002 $





000
SAUS41 KLWX 291800
MTRRYT
METAR KRYT 291753Z AUTO 28004KT 10SM BKN060 20/12 A2994 RMK AO2
SLP131 T02000122 10200 20144 55002 $





000
SAUS41 KLWX 291759 COR
MTRDMH
METAR KDMH 291754Z AUTO 24/11 A2992 RMK AO1 SLP131 T02390111 10239
20189 55002





000
SAUS41 KLWX 291756
MTRNAK
METAR KNAK 291754Z AUTO 29008KT 10SM SCT050 22/11 A2992 RMK AO2
SLP135 T02220106 10222 20183 53000





000
SAUS41 KLWX 291710 COR
MTRRSP
METAR KRSP 291654Z AUTO VRB06KT 10SM FEW019 BKN046 18/12 A2997 RMK
AO2 SLP146 T01780117 $





000
SAUS41 KLWX 291700
MTRRYT
METAR KRYT 291653Z AUTO 00000KT 10SM SCT029 SCT037 BKN046 19/12
A2993 RMK AO2 SLP130 T01890117 $





000
SAUS41 KLWX 291659 COR
MTRDMH
METAR KDMH 291654Z AUTO 24/13 A2991 RMK AO1 SLP129 T02390128





000
SAUS41 KLWX 291655
MTRNAK
METAR KNAK 291654Z AUTO VRB06KT 10SM FEW049 22/11 A2992 RMK AO2
SLP133 T02220106





000
SAUS41 KLWX 291609 COR
MTRRSP
METAR KRSP 291554Z AUTO VRB04KT 10SM SCT027 OVC036 16/11 A2996 RMK
AO2 SLP147 T01560106 $





000
SAUS41 KLWX 291600
MTRRYT
METAR KRYT 291553Z AUTO 26004KT 10SM BKN039 BKN050 OVC060 18/12
A2994 RMK AO2 SLP131 T01830117 $





000
SAUS41 KLWX 291559 COR
MTRDMH
METAR KDMH 291554Z AUTO 22/13 A2992 RMK AO1 SLP132 T02170128





000
SAUS41 KLWX 291555
MTRNAK
METAR KNAK 291554Z AUTO 34005KT 10SM FEW042 21/13 A2992 RMK AO2
SLP132 T02110128





000
SAUS41 KLWX 291549 COR
MTRRSP
SPECI KRSP 291534Z AUTO 33006KT 10SM FEW017 BKN027 BKN034 16/10
A2996 RMK AO2 $





000
SAUS41 KLWX 291527 COR
MTRRSP
SPECI KRSP 291511Z AUTO VRB04KT 10SM SCT027 16/11 A2996 RMK AO2 $





000
SAUS41 KLWX 291509 COR
MTRRSP
METAR KRSP 291454Z AUTO VRB06KT 10SM OVC027 16/11 A2996 RMK AO2
SLP147 T01560111 50004 $





000
SAUS41 KLWX 291500
MTRRYT
METAR KRYT 291453Z AUTO 00000KT 10SM OVC032 17/11 A2994 RMK AO2
SLP133 T01720111 51004 $





000
SAUS41 KLWX 291459 COR
MTRDMH
METAR KDMH 291454Z AUTO 21/12 A2992 RMK AO1 SLP133 T02110122 50000





000
SAUS41 KLWX 291455
MTRNAK
METAR KNAK 291454Z AUTO 35005KT 10SM FEW070 21/13 A2992 RMK AO2
SLP134 T02110128 50001





000
SAUS41 KLWX 291421 COR
MTRRSP
SPECI KRSP 291408Z AUTO VRB04KT 10SM BKN023 BKN030 14/10 A2997 RMK
AO2 $





000
SAUS41 KLWX 291409 COR
MTRRSP
METAR KRSP 291354Z AUTO VRB04KT 10SM SCT023 BKN030 14/10 A2996 RMK
AO2 SLP147 T01440100 $





000
SAUS41 KLWX 291400
MTRRYT
METAR KRYT 291353Z AUTO VRB06KT 10SM FEW050 16/11 A2994 RMK AO2
SLP133 T01610106 $





000
SAUS41 KLWX 291359 COR
MTRDMH
METAR KDMH 291354Z AUTO 21/13 A2993 RMK AO1 SLP135 T02060128





000
SAUS41 KLWX 291356
MTRNAK
METAR KNAK 291354Z AUTO 28008KT 10SM BKN065 OVC080 19/12 A2993 RMK
AO2 SLP136 T01940117





000
SAUS41 KLWX 291310 COR
MTRRSP
METAR KRSP 291254Z AUTO 31007KT 260V330 10SM SCT037 13/09 A2995 RMK
AO2 SLP144 T01330094 $





000
SAUS41 KLWX 291300
MTRRYT
METAR KRYT 291253Z AUTO VRB04KT 10SM BKN055 14/09 A2994 RMK AO2
SLP133 T01440094 $





000
SAUS41 KLWX 291259 COR
MTRDMH
METAR KDMH 291254Z AUTO 19/12 A2993 RMK AO1 SLP136 T01940117





000
SAUS41 KLWX 291255
MTRNAK
METAR KNAK 291254Z AUTO 27006KT 10SM OVC060 19/12 A2993 RMK AO2
SLP137 T01890122





000
SAUS41 KLWX 291210 COR
MTRRSP
METAR KRSP 291154Z AUTO VRB06KT 10SM CLR 12/09 A2995 RMK AO2 SLP143
70010 T01170089 10144 20111 53015 $





000
SAUS41 KLWX 291200
MTRRYT
METAR KRYT 291153Z AUTO 25003KT 10SM SCT039 BKN047 BKN060 14/09
A2993 RMK AO2 SLP129 70001 T01440089 10172 20139 53018 $





000
SAUS41 KLWX 291159 COR
MTRDMH
METAR KDMH 291154Z AUTO 19/13 A2992 RMK AO1 SLP132 T01890128 10206
20183 51020





000
SAUS41 KLWX 291155
MTRNAK
METAR KNAK 291154Z AUTO 29005KT 10SM OVC080 18/14 A2992 RMK AO2
SLP133 T01830139 10206 20178 51021





000
SAUS41 KLWX 291110 COR
MTRRSP
METAR KRSP 291054Z AUTO 32008KT 10SM FEW045 12/09 A2994 RMK AO2
SLP138 T01170089 $





000
SAUS41 KLWX 291100
MTRRYT
METAR KRYT 291053Z AUTO 00000KT 10SM FEW044 14/09 A2991 RMK AO2
SLP124 T01390089 $





000
SAUS41 KLWX 291059 COR
MTRDMH
METAR KDMH 291054Z AUTO 18/14 A2991 RMK AO1 SLP126 T01830139





000
SAUS41 KLWX 291055
MTRNAK
METAR KNAK 291054Z AUTO 29005KT 9SM BKN080 18/14 A2990 RMK AO2
SLP128 T01830144





000
SAUS41 KLWX 291009 COR
MTRRSP
METAR KRSP 290954Z AUTO 32007G14KT 270V360 10SM CLR 12/08 A2991 RMK
AO2 SLP129 T01170083 $





000
SAUS41 KLWX 291000
MTRRYT
METAR KRYT 290953Z AUTO VRB03KT 10SM CLR 15/09 A2989 RMK AO2 SLP114
T01500094 $





000
SAUS41 KLWX 290959 COR
MTRDMH
METAR KDMH 290954Z AUTO 19/14 A2988 RMK AO1 SLP119 T01890139





000
SAUS41 KLWX 290956
MTRNAK
METAR KNAK 290954Z AUTO 29005KT 10SM CLR 18/14 A2988 RMK AO2 SLP119
T01780144





000
SAUS41 KLWX 290921 COR
MTRRSP
SPECI KRSP 290909Z AUTO 31007KT 10SM SCT028 12/11 A2990 RMK AO2 $





000
SAUS41 KLWX 290909 COR
MTRRSP
METAR KRSP 290854Z AUTO 32006KT 10SM FEW021 BKN028 13/11 A2990 RMK
AO2 SLP125 T01280106 53009 $





000
SAUS41 KLWX 290900
MTRRYT
METAR KRYT 290853Z AUTO 00000KT 10SM SCT039 16/12 A2988 RMK AO2
SLP108 T01560117 53009 $





000
SAUS41 KLWX 290859 COR
MTRDMH
METAR KDMH 290854Z AUTO 19/14 A2987 RMK AO1 SLP113 T01890139 53010





000
SAUS41 KLWX 290858 COR
MTRRSP
SPECI KRSP 290843Z AUTO 33006KT 10SM FEW021 OVC028 13/11 A2990 RMK
AO2 $





000
SAUS41 KLWX 290855
MTRNAK
METAR KNAK 290854Z AUTO 27004KT 10SM CLR 19/14 A2986 RMK AO2 SLP113
T01890144 53011





000
SAUS41 KLWX 290840 COR
MTRRSP
SPECI KRSP 290825Z AUTO 33008KT 300V360 10SM SCT017 OVC030 13/11
A2990 RMK AO2 $





000
SAUS41 KLWX 290809 COR
MTRRSP
METAR KRSP 290754Z AUTO VRB06KT 10SM BKN019 BKN035 13/12 A2989 RMK
AO2 SLP118 T01330117 $





000
SAUS41 KLWX 290800
MTRRYT
METAR KRYT 290753Z AUTO 24003KT 10SM BKN047 16/13 A2986 RMK AO2
SLP104 T01560128 $





000
SAUS41 KLWX 290759 COR
MTRDMH
METAR KDMH 290754Z AUTO 19/14 A2985 RMK AO1 SLP108 T01940144





000
SAUS41 KLWX 290755
MTRNAK
METAR KNAK 290754Z AUTO 28006KT 10SM CLR 19/15 A2984 RMK AO2 SLP107
T01940150





000
SAUS41 KLWX 290709 COR
MTRRSP
METAR KRSP 290654Z AUTO VRB04KT 10SM BKN017 OVC025 14/12 A2988 RMK
AO2 SLP116 T01390122 $





000
SAUS41 KLWX 290700
MTRRYT
METAR KRYT 290653Z AUTO 00000KT 10SM SCT039 16/13 A2985 RMK AO2
SLP100 T01610128 $





000
SAUS41 KLWX 290659 COR
MTRDMH
METAR KDMH 290654Z AUTO 20/14 A2984 RMK AO1 SLP105 T02000144





000
SAUS41 KLWX 290655
MTRNAK
METAR KNAK 290654Z AUTO 29007KT 10SM CLR 19/14 A2984 RMK AO2 SLP105
T01940144





000
SAUS41 KLWX 290609 COR
MTRRSP
METAR KRSP 290554Z AUTO VRB03KT 10SM BKN019 BKN026 14/12 A2987 RMK
AO2 SLP113 T01440122 10167 20139 50000 $





000
SAUS41 KLWX 290600
MTRRYT
METAR KRYT 290553Z AUTO 00000KT 10SM CLR 17/13 A2985 RMK AO2 SLP098
T01670128 10200 20167 50001 $





000
SAUS41 KLWX 290559 COR
MTRDMH
METAR KDMH 290554Z AUTO 21/15 A2983 RMK AO1 SLP102 T02060150 10250
20206 53007





000
SAUS41 KLWX 290556 COR
MTRRSP
SPECI KRSP 290541Z AUTO VRB05KT 10SM BKN022 BKN026 14/13 A2988 RMK
AO2 $





000
SAUS41 KLWX 290555
MTRNAK
METAR KNAK 290554Z AUTO 29007KT 10SM CLR 20/16 A2983 RMK AO2 SLP102
T02000156 10256 20200 53008





000
SAUS41 KLWX 290521 COR
MTRRSP
SPECI KRSP 290508Z AUTO 35009G15KT 10SM SCT022 14/13 A2987 RMK AO2 $





000
SAUS41 KLWX 290509 COR
MTRRSP
METAR KRSP 290454Z AUTO 34008KT 10SM BKN022 OVC037 15/13 A2988 RMK
AO2 SLP114 T01500128 402330150 $





000
SAUS41 KLWX 290500
MTRRYT
METAR KRYT 290453Z AUTO 25003KT 10SM OVC055 17/13 A2985 RMK AO2
SLP100 T01720128 402500172 $





000
SAUS41 KLWX 290459 COR
MTRDMH
METAR KDMH 290454Z AUTO 21/15 A2982 RMK AO1 SLP097 T02060150
403000206





000
SAUS41 KLWX 290455
MTRNAK
METAR KNAK 290454Z AUTO 29008KT 10SM FEW080 21/16 A2981 RMK AO2
SLP095 T02110161 402890211





000
SAUS41 KLWX 290418
MTRRSP
SPECI KRSP 290410Z AUTO 34007G16KT 10SM BKN020 BKN028 15/13 A2988
RMK AO2 $





000
SAUS41 KLWX 290409 COR
MTRRSP
METAR KRSP 290354Z AUTO 33007G16KT 300V360 10SM FEW023 BKN030 15/13
A2987 RMK AO2 SLP112 T01500133 $





000
SAUS41 KLWX 290400
MTRRYT
METAR KRYT 290353Z AUTO 00000KT 10SM FEW034 19/13 A2985 RMK AO2
SLP096 T01890128 $





000
SAUS41 KLWX 290359 COR
MTRDMH
METAR KDMH 290354Z AUTO 22/14 A2981 RMK AO1 SLP096 T02170144





000
SAUS41 KLWX 290355
MTRNAK
METAR KNAK 290354Z AUTO 30006G14KT 10SM FEW048 SCT060 OVC070 22/16
A2980 RMK AO2 SLP094 T02220161





000
SAUS41 KLWX 290338 COR
MTRRSP
SPECI KRSP 290323Z AUTO 33007KT 10SM SCT025 15/13 A2987 RMK AO2 $





000
SAUS41 KLWX 290309 COR
MTRRSP
METAR KRSP 290254Z AUTO 33008G17KT 10SM OVC027 16/14 A2988 RMK AO2
SLP114 T01560139 51021 $





000
SAUS41 KLWX 290300
MTRRYT
METAR KRYT 290253Z AUTO 00000KT 10SM SCT032 19/13 A2984 RMK AO2
SLP096 T01890133 51024 $





000
SAUS41 KLWX 290259 COR
MTRDMH
METAR KDMH 290254Z AUTO 22/15 A2981 RMK AO1 SLP096 T02220150 51030





000
SAUS41 KLWX 290257 COR
MTRRSP
SPECI KRSP 290242Z AUTO VRB06KT 10SM BKN027 16/14 A2988 RMK AO2 $





000
SAUS41 KLWX 290255
MTRNAK
METAR KNAK 290254Z AUTO 30011G18KT 10SM CLR 23/16 A2980 RMK AO2
SLP093 T02280161 51029





000
SAUS41 KLWX 290209 COR
MTRRSP
METAR KRSP 290154Z AUTO VRB06KT 10SM FEW041 16/14 A2986 RMK AO2
SLP109 T01610144 $





000
SAUS41 KLWX 290200
MTRRYT
METAR KRYT 290153Z AUTO VRB03KT 10SM CLR 19/13 A2983 RMK AO2 SLP090
T01940133 $





000
SAUS41 KLWX 290159 COR
MTRDMH
METAR KDMH 290154Z AUTO 22/17 A2980 RMK AO1 SLP090 T02220167





000
SAUS41 KLWX 290155
MTRNAK
METAR KNAK 290154Z AUTO 31011KT 10SM SCT049 BKN060 OVC120 23/16
A2979 RMK AO2 SLP089 T02330161





000
SAUS41 KLWX 290121 COR
MTRRSP
SPECI KRSP 290107Z AUTO VRB06G17KT 10SM SCT020 SCT029 BKN041 16/15
A2984 RMK AO2 $





000
SAUS41 KLWX 290109 COR
MTRRSP
METAR KRSP 290054Z AUTO 33008G16KT 290V360 10SM BKN022 BKN030 17/15
A2983 RMK AO2 SLP099 T01670150 $





000
SAUS41 KLWX 290100
MTRRYT
METAR KRYT 290053Z AUTO VRB03KT 10SM SCT049 19/15 A2980 RMK AO2
SLP081 T01940150 $





000
SAUS41 KLWX 290059 COR
MTRDMH
METAR KDMH 290054Z AUTO 22/16 A2976 RMK AO1 SLP079 T02220161





000
SAUS41 KLWX 290055
MTRNAK
METAR KNAK 290054Z AUTO 29011G20KT 10SM FEW075 24/15 A2975 RMK AO2
PRESRR SLP076 T02390150





000
SAUS41 KLWX 290026 COR
MTRRSP
SPECI KRSP 290011Z AUTO VRB06KT 10SM SCT019 BKN024 BKN030 17/16
A2982 RMK AO2 $





000
SAUS41 KLWX 290009 COR
MTRRSP
METAR KRSP 282354Z AUTO 33010G15KT 10SM FEW014 SCT021 BKN100 17/16
A2981 RMK AO2 SLP091 60010 T01670156 10228 20167 51026 $





000
SAUS41 KLWX 290000
MTRRYT
METAR KRYT 282353Z AUTO 34003KT 10SM SCT100 20/15 A2977 RMK AO2
SLP072 60001 T02000150 10250 20194 53029 $





000
SAUS41 KLWX 282359 COR
MTRDMH
METAR KDMH 282354Z AUTO 25/14 A2972 RMK AO1 SLP065 T02500144 10300
20250 53018





000
SAUS41 KLWX 282355
MTRNAK
METAR KNAK 282354Z AUTO 29008G16KT 10SM FEW070 26/14 A2972 RMK AO2
SLP064 T02560144 10289 20256 53016





000
SAUS41 KLWX 282309 COR
MTRRSP
METAR KRSP 282254Z AUTO 32011G20KT 10SM FEW024 BKN070 OVC110 17/16
A2978 RMK AO2 RAB2157E45 SLP081 P0010 T01720161 $





000
SAUS41 KLWX 282300
MTRRYT
METAR KRYT 282253Z AUTO 00000KT 10SM FEW090 BKN110 19/16 A2974 RMK
AO2 RAB12E23 SLP063 P0001 T01940156 $





000
SAUS41 KLWX 282259 COR
MTRDMH
METAR KDMH 282254Z AUTO 26/14 A2970 RMK AO1 SLP057 T02610139





000
SAUS41 KLWX 282259 COR
MTRRSP
SPECI KRSP 282244Z AUTO 33011G20KT 7SM -RA FEW022 BKN037 BKN060
17/16 A2978 RMK AO2 RAB2157 P0010 $





000
SAUS41 KLWX 282256
MTRNAK
METAR KNAK 282254Z AUTO 28012G21KT 250V320 10SM CLR 27/14 A2970 RMK
AO2 SLP058 T02670139





000
SAUS41 KLWX 282241
MTRRSP
SPECI KRSP 282234Z AUTO 32011G16KT 10SM FEW017 BKN025 OVC034 17/16
A2978 RMK AO2 RAB2157E30 P0010 $





000
SAUS41 KLWX 282233 COR
MTRRSP
SPECI KRSP 282220Z AUTO 33008G16KT 3/4SM RA BR FEW019 OVC026 17/16
A2978 RMK AO2 RAB2157 P0010 $





000
SAUS41 KLWX 282225 COR
MTRRSP
SPECI KRSP 282211Z AUTO 33008G16KT 300V360 1 1/2SM +RA BKN028 OVC035
18/14 A2978 RMK AO2 RAB2157 P0004 $





000
SAUS41 KLWX 282210 COR
MTRRSP
METAR KRSP 282154Z AUTO VRB06G15KT 10SM SCT030 BKN035 OVC043 19/14
A2976 RMK AO2 SLP074 T01940144 $





000
SAUS41 KLWX 282200
MTRRYT
METAR KRYT 282153Z AUTO VRB05KT 10SM SCT048 SCT060 23/14 A2971 RMK
AO2 SLP050 T02280139 $





000
SAUS41 KLWX 282159 COR
MTRDMH
METAR KDMH 282154Z AUTO 27/14 A2968 RMK AO1 SLP051 T02720139





000
SAUS41 KLWX 282155
MTRNAK
METAR KNAK 282154Z AUTO 29013G20KT 10SM FEW060 FEW100 28/14 A2968
RMK AO2 SLP053 T02780139





000
SAUS41 KLWX 282109 COR
MTRRSP
METAR KRSP 282054Z AUTO 31012G26KT 260V340 10SM FEW041 SCT055 21/14
A2973 RMK AO2 PK WND 29027/2043 SLP062 T02060139 53005 $





000
SAUS41 KLWX 282100
MTRRYT
METAR KRYT 282053Z AUTO 22008KT 190V270 10SM SCT050 24/15 A2968 RMK
AO2 SLP040 T02440150 53004 $





000
SAUS41 KLWX 282059 COR
MTRDMH
METAR KDMH 282054Z AUTO 28/14 A2967 RMK AO1 SLP047 T02780144 53011





000
SAUS41 KLWX 282055
MTRNAK
METAR KNAK 282054Z AUTO 28014G21KT 10SM FEW100 28/13 A2967 RMK AO2
SLP048 T02780133 53006





000
SAUS41 KLWX 282009 COR
MTRRSP
METAR KRSP 281954Z AUTO 31012G26KT 270V350 10SM BKN042 OVC050 21/13
A2973 RMK AO2 PK WND 32026/1950 SLP061 T02060133 $





000
SAUS41 KLWX 282000
MTRRYT
METAR KRYT 281953Z 22007G15KT 190V260 10SM BKN049 OVC070 23/13 A2968
RMK AO2 SLP038 T02330133 $





000
SAUS41 KLWX 281959 COR
MTRDMH
METAR KDMH 281954Z AUTO 28/14 A2965 RMK AO1 SLP041 T02830144





000
SAUS41 KLWX 281955
MTRNAK
METAR KNAK 281954Z AUTO 28010G22KT 260V320 10SM FEW060 28/14 A2965
RMK AO2 SLP043 T02830139





000
SAUS41 KLWX 281910 COR
MTRRSP
METAR KRSP 281854Z AUTO 32009G19KT 290V360 10SM SCT060 23/14 A2972
RMK AO2 SLP056 T02280139 $





000
SAUS41 KLWX 281900
MTRRYT
METAR KRYT 281853Z VRB06KT 10SM SCT050 BKN060 24/14 A2967 RMK AO2
SLP036 T02440144 $





000
SAUS41 KLWX 281859 COR
MTRDMH
METAR KDMH 281854Z AUTO 29/12 A2964 RMK AO1 SLP036 T02890122





000
SAUS41 KLWX 281855
MTRNAK
METAR KNAK 281854Z AUTO 28013G24KT 250V310 10SM SCT070 29/13 A2965
RMK AO2 SLP041 T02890133





000
SAUS41 KLWX 281809 COR
MTRRSP
METAR KRSP 281754Z AUTO 31013G23KT 290V350 10SM SCT042 BKN049 OVC060
22/13 A2972 RMK AO2 PK WND 30027/1729 SLP055 T02170133 10233 20189
51005 $





000
SAUS41 KLWX 281800
MTRRYT
METAR KRYT 281753Z VRB04KT 10SM OVC049 23/13 A2967 RMK AO2 SLP038
T02280133 10239 20206 51002 $





000
SAUS41 KLWX 281759 COR
MTRDMH
METAR KDMH 281754Z AUTO 29/13 A2964 RMK AO1 SLP036 T02940133 10294
20250 50000





000
SAUS41 KLWX 281755
MTRNAK
METAR KNAK 281754Z AUTO 31008KT 10SM SCT060 BKN090 27/16 A2965 RMK
AO2 SLP042 T02720156 10283 20256 51005





000
SAUS41 KLWX 281709 COR
MTRRSP
METAR KRSP 281654Z AUTO 32011G26KT 270V020 10SM FEW035 BKN055 22/13
A2972 RMK AO2 PK WND 32027/1607 SLP056 T02220133 $





000
SAUS41 KLWX 281700
MTRRYT
METAR KRYT 281653Z VRB03KT 10SM SCT044 BKN055 23/14 A2967 RMK AO2
SLP037 T02330139 $





000
SAUS41 KLWX 281659 COR
MTRDMH
METAR KDMH 281654Z AUTO 28/14 A2965 RMK AO1 SLP039 T02780139





000
SAUS41 KLWX 281655
MTRNAK
METAR KNAK 281654Z AUTO 29010G21KT 10SM FEW060 SCT100 27/15 A2965
RMK AO2 SLP042 T02720150





000
SAUS41 KLWX 281609 COR
MTRRSP
METAR KRSP 281554Z AUTO 32018G32KT 290V360 10SM FEW030 22/14 A2971
RMK AO2 PK WND 32032/1554 SLP055 T02170139 $





000
SAUS41 KLWX 281600
MTRRYT
METAR KRYT 281553Z 25007KT 180V330 10SM SCT040 BKN048 23/14 A2968
RMK AO2 SLP040 T02280139 $





000
SAUS41 KLWX 281559 COR
MTRDMH
METAR KDMH 281554Z AUTO 28/15 A2965 RMK AO1 SLP039 T02780150





000
SAUS41 KLWX 281555
MTRNAK
METAR KNAK 281554Z AUTO 31010G24KT 10SM SCT060 SCT110 28/15 A2965
RMK AO2 SLP041 T02780150





000
SAUS41 KLWX 281509 COR
MTRRSP
METAR KRSP 281454Z AUTO 31011G22KT 250V020 10SM FEW026 BKN033 20/15
A2970 RMK AO2 PK WND 31027/1425 SLP052 T02000150 51013 $





000
SAUS41 KLWX 281500
MTRRYT
METAR KRYT 281453Z AUTO 31007KT 250V010 10SM BKN039 OVC047 22/14
A2967 RMK AO2 SLP036 T02220144 51018 $





000
SAUS41 KLWX 281459 COR
MTRDMH
METAR KDMH 281454Z AUTO 27/16 A2964 RMK AO1 SLP035 T02670161 53012





000
SAUS41 KLWX 281455
MTRNAK
METAR KNAK 281454Z AUTO 29009G21KT 250V320 10SM CLR 28/16 A2963 RMK
AO2 SLP037 T02780161 53011





000
SAUS41 KLWX 281409 COR
MTRRSP
METAR KRSP 281354Z AUTO 33009G23KT 10SM FEW025 BKN030 BKN036 19/15
A2970 RMK AO2 SLP050 T01940150 $





000
SAUS41 KLWX 281400
MTRRYT
METAR KRYT 281353Z AUTO VRB04KT 10SM SCT033 SCT043 22/15 A2966 RMK
AO2 SLP032 T02220150 $





000
SAUS41 KLWX 281359 COR
MTRDMH
METAR KDMH 281354Z AUTO 27/17 A2962 RMK AO1 SLP031 T02720167





000
SAUS41 KLWX 281355
MTRNAK
METAR KNAK 281354Z AUTO 28010G18KT 10SM FEW048 27/17 A2962 RMK AO2
SLP033 T02720172





000
SAUS41 KLWX 281345 COR
MTRRSP
SPECI KRSP 281330Z AUTO 33010G21KT 300V360 10SM SCT020 BKN048 19/15
A2970 RMK AO2 $





000
SAUS41 KLWX 281309 COR
MTRRSP
METAR KRSP 281254Z AUTO VRB06G25KT 10SM FEW013 BKN019 OVC027 19/16
A2968 RMK AO2 PK WND 32026/1230 SLP044 T01890156 $





000
SAUS41 KLWX 281300
MTRRYT
METAR KRYT 281253Z AUTO VRB04KT 10SM FEW028 SCT034 21/16 A2964 RMK
AO2 SLP026 T02110156 $





000
SAUS41 KLWX 281300 COR
MTRRSP
SPECI KRSP 281244Z AUTO 32011G24KT 270V350 10SM FEW014 SCT021 BKN027
19/16 A2968 RMK AO2 PK WND 32026/1230 $





000
SAUS41 KLWX 281259 COR
MTRDMH
METAR KDMH 281254Z AUTO 27/18 A2961 RMK AO1 SLP027 T02670178





000
SAUS41 KLWX 281255
MTRNAK
METAR KNAK 281254Z AUTO 29010G14KT 10SM CLR 27/18 A2961 RMK AO2
SLP028 T02720183





000
SAUS41 KLWX 281209 COR
MTRRSP
METAR KRSP 281154Z AUTO 30007G18KT 270V330 10SM SCT021 19/17 A2966
RMK AO2 SLP036 60001 70098 T01890167 10189 20178 53018 $





000
SAUS41 KLWX 281200
MTRRYT
METAR KRYT 281153Z AUTO VRB06KT 10SM CLR 21/17 A2961 RMK AO2 SLP014
60001 70210 T02110172 10211 20178 51016 $





000
SAUS41 KLWX 281159 COR
MTRDMH
METAR KDMH 281154Z AUTO 25/20 A2960 RMK AO1 SLP023 70010 T02500200
10250 20217 53005





000
SAUS41 KLWX 281155
MTRNAK
METAR KNAK 281154Z AUTO VRB06KT 9SM CLR 26/21 A2960 RMK AO2 SLP025
T02560211 10256 20233 51009





000
SAUS41 KLWX 281109 COR
MTRRSP
METAR KRSP 281054Z AUTO 31009G18KT 280V340 8SM CLR 18/17 A2965 RMK
AO2 SLP030 T01830167 $





000
SAUS41 KLWX 281100
MTRRYT
METAR KRYT 281053Z AUTO VRB06KT 10SM CLR 21/17 A2960 RMK AO2 SLP009
P0001 T02060172 $





000
SAUS41 KLWX 281059 COR
MTRDMH
METAR KDMH 281054Z AUTO 23/20 A2960 RMK AO1 SLP023 T02280200





000
SAUS41 KLWX 281055
MTRNAK
METAR KNAK 281054Z AUTO VRB04KT 7SM CLR 24/22 A2960 RMK AO2 SLP025
T02390217





000
SAUS41 KLWX 281010 COR
MTRRSP
METAR KRSP 280954Z AUTO 29009G17KT 7SM CLR 18/17 A2962 RMK AO2
SLP022 P0001 T01780167 $





000
SAUS41 KLWX 281000
MTRRYT
METAR KRYT 280953Z AUTO 16003KT 7SM CLR 19/18 A2958 RMK AO2 SLP005
T01890178 $





000
SAUS41 KLWX 280959 COR
MTRDMH
METAR KDMH 280954Z AUTO 23/20 A2958 RMK AO1 SLP016 T02280200





000
SAUS41 KLWX 280955
MTRNAK
METAR KNAK 280954Z AUTO VRB04KT 9SM CLR 24/21 A2959 RMK AO2 SLP020
T02390211





000
SAUS41 KLWX 280909 COR
MTRRSP
METAR KRSP 280854Z AUTO 30009G19KT 260V340 7SM CLR 18/17 A2961 RMK
AO2 SLP016 60000 T01780172 56022 $





000
SAUS41 KLWX 280900
MTRRYT
METAR KRYT 280853Z AUTO 00000KT 10SM FEW007 19/18 A2956 RMK AO2
SLP996 T01940178 58019 $





000
SAUS41 KLWX 280859 COR
MTRDMH
METAR KDMH 280854Z AUTO 22/21 A2959 RMK AO1 SLP018 T02220206 56006





000
SAUS41 KLWX 280856
MTRNAK
METAR KNAK 280854Z AUTO 00000KT 9SM CLR 24/22 A2958 RMK AO2 SLP017
T02440217 56006





000
SAUS41 KLWX 280824
MTRRYT
SPECI KRYT 280817Z AUTO 20003KT 10SM SCT007 19/18 A2959 RMK AO2 $





000
SAUS41 KLWX 280809 COR
MTRRSP
METAR KRSP 280754Z AUTO 30008G14KT 270V350 10SM CLR 18/17 A2962 RMK
AO2 SLP113 T01780167 $





000
SAUS41 KLWX 280809
MTRNAK
SPECI KNAK 280808Z AUTO VRB04KT 9SM FEW023 25/22 A2958 RMK AO2
T02500222





000
SAUS41 KLWX 280800
MTRRYT
METAR KRYT 280753Z AUTO VRB04KT 10SM CLR 19/18 A2959 RMK AO2 SLP007
T01940178 $





000
SAUS41 KLWX 280759 COR
MTRDMH
METAR KDMH 280754Z AUTO 22/20 A2959 RMK AO1 SLP020 T02220200





000
SAUS41 KLWX 280755
MTRNAK
METAR KNAK 280754Z AUTO 27004KT 9SM BKN025 25/22 A2958 RMK AO2
SLP020 T02500222





000
SAUS41 KLWX 280739
MTRNAK
SPECI KNAK 280738Z AUTO 00000KT 9SM SCT020 BKN028 25/22 A2959 RMK
AO2 T02500222





000
SAUS41 KLWX 280730
MTRNAK
SPECI KNAK 280729Z AUTO 00000KT 9SM SCT019 SCT029 24/22 A2959 RMK
AO2 T02440222





000
SAUS41 KLWX 280722
MTRRYT
SPECI KRYT 280721Z AUTO 23005KT 10SM FEW008 19/18 A2960 RMK AO2 $





000
SAUS41 KLWX 280709 COR
MTRRSP
METAR KRSP 280654Z AUTO 30010G19KT 10SM FEW003 BKN110 18/17 A2965
RMK AO2 RAB01E17B42E51 SLP124 P0000 T01830172 $





000
SAUS41 KLWX 280700
MTRRYT
METAR KRYT 280653Z AUTO 00000KT 3SM BR FEW110 18/18 A2960 RMK AO2
SLP009 T01830178 $





000
SAUS41 KLWX 280659 COR
MTRDMH
METAR KDMH 280654Z AUTO 22/19 A2959 RMK AO1 SLP021 T02220194





000
SAUS41 KLWX 280656
MTRNAK
METAR KNAK 280654Z AUTO 00000KT 9SM BKN023 24/22 A2958 RMK AO2
SLP020 T02440222





000
SAUS41 KLWX 280638 COR
MTRRSP
SPECI KRSP 280623Z AUTO 29008G14KT 10SM FEW003 SCT036 BKN100 18/18
A2967 RMK AO2 RAB01E17 P0000 $





000
SAUS41 KLWX 280638
MTRRYT
SPECI KRYT 280631Z AUTO VRB04KT 9SM SCT003 SCT070 BKN100 18/18 A2960
RMK AO2 $





000
SAUS41 KLWX 280634
MTRNAK
SPECI KNAK 280632Z AUTO 31004KT 9SM SCT025 BKN033 BKN047 25/22 A2958
RMK AO2 T02500222





000
SAUS41 KLWX 280609 COR
MTRRSP
METAR KRSP 280554Z AUTO 28006KT 10SM CLR 19/18 A2967 RMK AO2 SLP038
P0001 60094 T01890178 10222 20172 56024 $





000
SAUS41 KLWX 280600
MTRRYT
METAR KRYT 280553Z AUTO 25003KT 10SM OVC003 18/17 A2962 RMK AO2
SLP017 60209 T01780167 10244 20178 56032 $





000
SAUS41 KLWX 280559 COR
MTRDMH
METAR KDMH 280554Z AUTO 23/19 A2960 RMK AO1 SLP024 60010 T02280189
10283 20222 57020





000
SAUS41 KLWX 280556
MTRNAK
METAR KNAK 280554Z AUTO 24004KT 10SM BKN026 BKN095 26/22 A2959 RMK
AO2 RAB33E42 SLP022 P0000 60000 T02560217 10267 20250 56022





000
SAUS41 KLWX 280512
MTRRYT
SPECI KRYT 280505Z AUTO 00000KT 10SM OVC005 18/17 A2964 RMK AO2 CIG
005V008 $





000
SAUS41 KLWX 280510
MTRRSP
SPECI KRSP 280502Z AUTO 30006KT 6SM BR SCT001 18/17 A2969 RMK AO2 $





000
SAUS41 KLWX 280459 COR
MTRDMH
METAR KDMH 280454Z AUTO 23/19 A2962 RMK AO1 SLP030 P0010 T02280194
403330228





000
SAUS41 KLWX 280456
MTRNAK
METAR KNAK 280454Z AUTO 15006KT 10SM SCT030 SCT085 26/22 A2960 RMK
AO2 RAB07E17 SLP027 P0000 T02560217 402940233





000
SAUS41 KLWX 280453
MTRRYT
METAR KRYT 280453Z AUTO 00000KT 10SM BKN007 OVC011 18/17 A2964 RMK
AO2 TSE0356RAB0356E06B25E39 SLP024 P0033 T01780172 403000178 $





000
SAUS41 KLWX 280446
MTRNAK
SPECI KNAK 280445Z AUTO 16005KT 9SM BKN030 BKN085 25/22 A2961 RMK
AO2 RAB07E17 P0000 T02500217





000
SAUS41 KLWX 280443 COR
MTRRSP
SPECI KRSP 280432Z AUTO 00000KT 3/4SM BR BKN001 OVC015 18/17 A2969
RMK AO2 RAB13E23 P0000 $





000
SAUS41 KLWX 280443
MTRRYT
SPECI KRYT 280439Z AUTO 00000KT 2 1/2SM BR FEW002 OVC009 18/18 A2965
RMK AO2 TSE0356RAB0356E06B25E39 P0033 $





000
SAUS41 KLWX 280434
MTRRYT
SPECI KRYT 280433Z AUTO 00000KT 3/4SM RA BR FEW002 BKN007 OVC012
18/17 A2965 RMK AO2 TSE0356RAB0356E06B25 P0033 $





000
SAUS41 KLWX 280427
MTRNAK
SPECI KNAK 280425Z AUTO 17005KT 10SM BKN029 OVC090 25/22 A2963 RMK
AO2 RAB07E17 P0000 T02500222





000
SAUS41 KLWX 280425 COR
MTRRSP
SPECI KRSP 280413Z AUTO 00000KT 3/4SM -RA BR SCT001 BKN017 OVC023
18/17 A2971 RMK AO2 RAB13 P0000 $





000
SAUS41 KLWX 280417 COR
MTRRSP
SPECI KRSP 280406Z AUTO 00000KT 1 3/4SM BR BKN001 OVC022 18/17 A2971
RMK AO2 $





000
SAUS41 KLWX 280415
MTRRYT
SPECI KRYT 280408Z AUTO 02003KT 10SM BKN007 BKN014 OVC065 18/18
A2966 RMK AO2 TSE0356RAB0356E06 P0000 $





000
SAUS41 KLWX 280409 COR
MTRRSP
METAR KRSP 280354Z AUTO 17005KT 1/2SM FG FEW003 SCT015 OVC025 18/17
A2970 RMK AO2 TSE49RAE44 SLP051 P0042 T01780172 $





000
SAUS41 KLWX 280404
MTRRYT
SPECI KRYT 280357Z AUTO 00000KT 7SM -RA SCT005 BKN016 OVC080 18/18
A2966 RMK AO2 TSE56RAB56 P0000 $





000
SAUS41 KLWX 280359
MTRRSP
SPECI KRSP 280351Z AUTO 20004KT 1/4SM FG SCT013 BKN025 OVC034 18/17
A2970 RMK AO2 TSE49RAE44 P0042 $





000
SAUS41 KLWX 280359 COR
MTRDMH
METAR KDMH 280354Z AUTO 26/22 A2965 RMK AO1 SLP038 T02610217





000
SAUS41 KLWX 280356
MTRNAK
METAR KNAK 280354Z AUTO 20005KT 10SM SCT100 26/22 A2963 RMK AO2
SLP035 T02560217





000
SAUS41 KLWX 280349
MTRRSP
SPECI KRSP 280342Z AUTO 00000KT 1 1/4SM -TSRA BR FEW005 BKN016
OVC028 18/17 A2971 RMK AO2 P0042 $





000
SAUS41 KLWX 280343
MTRRYT
SPECI KRYT 280336Z AUTO 00000KT 5SM -TSRA BR BKN014 BKN029 OVC080
18/18 A2967 RMK AO2 P0094 $





    US Dept of Commerce
    National Oceanic and Atmospheric Administration
    National Weather Service
    1325 East West Highway
    Silver Spring, MD 20910
    Page Author: NWS Internet Services Team
Disclaimer
Information Quality
Credits
Glossary
Privacy Policy
Freedom of Information Act (FOIA)
About Us
Career Opportunities